Time;durP1;ratioP1;P1;durP2;ratioP2;P2;SDS_P1;SDS_P2;PMS_P1;PMS_P2;Temp;Humidity;BMP_temperature;BMP_pressure;BME280_temperature;BME280_humidity;BME280_pressure;Samples;Min_cycle;Max_cycle;Signal;HPM_P1;HPM_P2
2021/12/16 00:09:18;;;;;;;16.63;11.63;;;;;;;11.50;68.07;101879.94;5029521;27;102618;-49
2021/12/16 00:33:37;;;;;;;15.90;11.80;;;;;;;11.48;68.01;101868.47;5029036;27;104083;-49
2021/12/16 00:36:06;;;;;;;14.98;11.63;;;;;;;11.48;67.90;101866.56;5031084;27;102466;-49
2021/12/16 00:38:37;;;;;;;16.40;11.65;;;;;;;11.48;68.25;101866.56;5022330;27;102396;-50
2021/12/16 00:41:04;;;;;;;16.00;11.10;;;;;;;11.49;68.19;101881.00;5035109;27;102315;-49
2021/12/16 00:54:14;;;;;;;16.30;11.05;;;;;;;11.49;68.09;101886.47;5023482;27;102965;-49
2021/12/16 00:56:51;;;;;;;15.73;10.77;;;;;;;11.48;67.95;101873.91;5034481;27;102478;-49
2021/12/16 00:59:19;;;;;;;14.45;10.60;;;;;;;11.49;68.12;101883.75;5036122;27;102647;-49
2021/12/16 01:01:56;;;;;;;13.27;9.40;;;;;;;11.49;67.76;101875.56;5033240;27;102263;-49
2021/12/16 01:35:06;;;;;;;13.40;9.43;;;;;;;11.49;67.78;101865.47;5012955;28;102775;-49
2021/12/16 01:50:34;;;;;;;12.43;9.02;;;;;;;11.48;68.00;101852.09;5025766;27;102216;-49
2021/12/16 01:55:37;;;;;;;12.38;9.40;;;;;;;11.47;68.05;101853.19;5034398;27;102259;-49
2021/12/16 01:58:21;;;;;;;10.32;8.32;;;;;;;11.47;68.09;101845.00;5033380;27;103132;-49
2021/12/16 02:01:09;;;;;;;11.15;8.75;;;;;;;11.47;68.08;101850.47;5034911;27;102078;-48
2021/12/16 02:03:43;;;;;;;11.15;8.60;;;;;;;11.47;67.88;101850.47;5029508;27;102509;-49
2021/12/16 02:08:46;;;;;;;10.25;8.40;;;;;;;11.47;67.90;101850.47;5027873;27;103844;-49
2021/12/16 02:27:47;;;;;;;8.20;6.75;;;;;;;11.47;68.30;101855.91;5022024;27;103688;-49
2021/12/16 02:33:20;;;;;;;10.43;7.78;;;;;;;11.46;67.96;101846.88;4985270;27;103763;-49
2021/12/16 02:35:58;;;;;;;8.80;7.88;;;;;;;11.46;68.21;101859.69;5026316;27;102368;-49
2021/12/16 02:38:31;;;;;;;9.30;7.68;;;;;;;11.46;68.05;101849.63;5032665;27;102414;-49
2021/12/16 02:40:58;;;;;;;9.75;7.10;;;;;;;11.46;67.67;101848.78;5033633;27;103925;-49
2021/12/16 02:48:41;;;;;;;8.03;7.03;;;;;;;11.46;68.26;101851.53;5033867;27;102038;-49
2021/12/16 02:51:11;;;;;;;10.75;7.20;;;;;;;11.46;68.14;101848.78;5034658;27;104429;-49
2021/12/16 02:53:41;;;;;;;10.00;8.07;;;;;;;11.45;67.75;101847.97;5032110;27;102149;-49
2021/12/16 02:56:08;;;;;;;8.05;6.93;;;;;;;11.46;68.13;101865.16;5031113;27;102148;-48
2021/12/16 02:58:37;;;;;;;8.98;7.45;;;;;;;11.45;67.71;101855.34;5032852;27;102226;-49
2021/12/16 03:01:07;;;;;;;;;;;;;;;11.45;67.89;101874.41;5034419;27;103922;-48
2021/12/16 03:03:35;;;;;;;;;;;;;;;11.46;67.72;101865.16;5027682;27;102671;-49
2021/12/16 03:06:03;;;;;;;10.57;7.35;;;;;;;11.45;67.94;101863.50;5031167;27;102500;-49
2021/12/16 03:08:31;;;;;;;9.50;6.60;;;;;;;11.46;67.80;101865.16;5033410;27;102189;-49
2021/12/16 03:11:14;;;;;;;8.55;7.00;;;;;;;11.46;67.94;101865.16;5030939;27;104003;-48
2021/12/16 03:17:19;;;;;;;8.00;7.07;;;;;;;11.45;67.35;101874.41;5030025;27;102957;-49
2021/12/16 03:19:30;;;;;;;19.83;8.20;;;;;;;11.45;68.22;101868.97;5021574;27;102643;-48
2021/12/16 03:22:00;;;;;;;8.85;7.38;;;;;;;11.45;67.96;101875.22;5025914;27;103999;-50
2021/12/16 03:38:05;;;;;;;23.70;7.68;;;;;;;11.45;67.97;101877.97;5026104;27;102070;-49
2021/12/16 03:40:33;;;;;;;22.35;6.88;;;;;;;11.44;67.96;101873.59;5031936;27;102221;-49
2021/12/16 03:43:04;;;;;;;11.75;10.80;;;;;;;11.44;67.87;101870.03;5031964;27;104352;-49
2021/12/16 03:48:27;;;;;;;10.85;9.85;;;;;;;11.43;68.00;101866.50;5027258;27;102329;-49
2021/12/16 03:50:55;;;;;;;12.18;11.07;;;;;;;11.44;68.18;101870.88;5034426;27;102124;-49
2021/12/16 03:53:21;;;;;;;12.27;11.20;;;;;;;11.45;68.16;101863.50;5031903;27;104064;-49
2021/12/16 03:55:49;;;;;;;11.57;10.55;;;;;;;11.44;67.89;101876.31;5035589;27;102227;-50
2021/12/16 03:58:20;;;;;;;12.93;11.85;;;;;;;11.44;67.74;101867.31;5030256;27;102135;-49
2021/12/16 04:00:51;;;;;;;2.17;2.08;;;;;;;11.45;67.95;101885.31;5032284;27;102483;-48
2021/12/16 04:03:17;;;;;;;2.30;2.20;;;;;;;11.45;67.74;101888.03;5029194;27;103918;-48
2021/12/16 04:05:45;;;;;;;1.85;1.75;;;;;;;11.44;67.76;101894.56;5029963;27;102473;-49
2021/12/16 04:08:13;;;;;;;2.28;2.17;;;;;;;11.45;67.86;101885.31;5021949;27;102476;-49
2021/12/16 04:10:43;;;;;;;15.15;14.35;;;;;;;11.44;68.06;101894.56;5028763;27;102822;-49
2021/12/16 04:13:13;;;;;;;11.65;10.65;;;;;;;11.43;68.25;101888.31;5029749;27;104654;-49
2021/12/16 04:15:43;;;;;;;12.05;11.05;;;;;;;11.43;67.94;101892.91;5027531;27;102163;-49
2021/12/16 04:18:10;;;;;;;13.70;12.52;;;;;;;11.43;67.89;101899.22;5020060;27;103234;-49
2021/12/16 04:20:38;;;;;;;13.95;12.82;;;;;;;11.44;67.87;101887.22;5031311;27;102694;-49
2021/12/16 04:23:06;;;;;;;14.38;13.15;;;;;;;11.43;67.78;101899.22;5032551;27;104148;-49
2021/12/16 04:25:36;;;;;;;14.45;13.35;;;;;;;11.43;67.91;101899.22;5032118;27;102317;-48
2021/12/16 04:28:05;;;;;;;16.10;14.82;;;;;;;11.43;67.93;101898.34;5033190;27;102230;-49
2021/12/16 04:30:32;;;;;;;;;;;;;;;11.42;67.92;101902.16;5025095;27;102646;-49
2021/12/16 04:33:02;;;;;;;;;;;;;;;11.43;68.15;101901.09;5032421;27;103918;-49
2021/12/16 04:35:30;;;;;;;4.57;4.28;;;;;;;11.42;68.07;101899.44;5029122;27;102458;-49
2021/12/16 04:37:57;;;;;;;4.38;4.07;;;;;;;11.42;68.04;101904.88;5029190;27;102381;-49
2021/12/16 04:40:26;;;;;;;4.78;4.47;;;;;;;11.42;67.96;101896.72;5034841;27;102482;-49
2021/12/16 04:43:00;;;;;;;4.82;4.43;;;;;;;11.42;67.70;101897.53;5024023;27;105066;-50
2021/12/16 04:45:29;;;;;;;4.53;4.22;;;;;;;11.42;68.02;101902.16;5024958;27;102615;-49
2021/12/16 04:47:56;;;;;;;;;;;;;;;11.41;67.79;101897.78;5019103;27;102953;-50
2021/12/16 04:50:24;;;;;;;5.72;5.38;;;;;;;11.42;67.96;101899.44;5024225;27;102221;-51
2021/12/16 04:52:52;;;;;;;5.70;5.30;;;;;;;11.41;68.00;101893.16;5029945;27;104114;-49
2021/12/16 04:55:23;;;;;;;4.90;4.60;;;;;;;11.41;67.98;101890.44;5025211;27;102105;-49
2021/12/16 04:57:50;;;;;;;5.28;4.97;;;;;;;11.42;67.79;101883.09;5020139;27;103561;-49
2021/12/16 05:00:22;;;;;;;4.57;4.28;;;;;;;11.42;67.58;101888.53;5031074;27;102295;-49
2021/12/16 05:02:48;;;;;;;5.20;4.90;;;;;;;11.42;67.77;101891.25;5017637;27;103873;-48
2021/12/16 05:05:16;;;;;;;5.90;5.50;;;;;;;11.42;67.83;101883.09;5029673;27;102777;-48
2021/12/16 05:07:47;;;;;;;6.40;6.00;;;;;;;11.43;67.91;101887.44;5030630;27;102301;-49
2021/12/16 05:10:15;;;;;;;5.30;5.00;;;;;;;11.42;68.36;101888.53;5019477;27;102055;-48
2021/12/16 05:12:47;;;;;;;6.15;5.75;;;;;;;11.42;67.88;101886.63;5032482;27;104363;-49
2021/12/16 05:15:19;;;;;;;5.80;5.40;;;;;;;11.41;67.83;101878.72;5030155;27;102159;-48
2021/12/16 05:17:51;;;;;;;6.47;6.07;;;;;;;11.43;67.86;101890.19;5025283;27;102090;-49
2021/12/16 05:20:21;;;;;;;6.40;6.00;;;;;;;11.42;67.84;101902.16;5025787;27;102261;-49
2021/12/16 05:26:24;;;;;;;6.22;5.82;;;;;;;11.42;67.80;101899.44;5018575;28;102194;-49
2021/12/16 05:28:29;;;;;;;14.15;13.05;;;;;;;11.42;67.84;101907.63;5015075;27;102754;-49
2021/12/16 05:30:57;;;;;;;7.30;6.88;;;;;;;11.42;67.80;101908.44;5014205;27;103693;-49
2021/12/16 05:33:24;;;;;;;12.60;11.70;;;;;;;11.42;67.88;101907.63;5021691;27;104423;-49
2021/12/16 05:35:51;;;;;;;16.00;15.05;;;;;;;11.42;67.88;101902.97;5023078;27;102926;-50
2021/12/16 05:38:20;;;;;;;13.68;12.57;;;;;;;11.41;67.79;101895.88;5031851;27;102416;-49
2021/12/16 05:40:46;;;;;;;14.40;13.20;;;;;;;11.42;68.13;101902.16;5033342;27;102142;-49
2021/12/16 05:43:16;;;;;;;15.25;14.05;;;;;;;11.42;67.87;101893.97;5034922;27;103883;-50
2021/12/16 05:45:44;;;;;;;14.80;13.70;;;;;;;11.43;67.88;101898.34;5031742;27;102141;-50
2021/12/16 05:48:14;;;;;;;14.70;13.38;;;;;;;11.42;68.08;101896.72;5026801;27;104037;-49
2021/12/16 05:50:45;;;;;;;13.85;12.77;;;;;;;11.42;67.72;101896.72;5031908;27;102496;-49
2021/12/16 05:53:12;;;;;;;13.48;12.48;;;;;;;11.43;67.88;101892.91;5028836;27;103909;-49
2021/12/16 05:55:40;;;;;;;13.20;11.90;;;;;;;11.42;67.97;101902.16;5029106;27;102136;-49
2021/12/16 05:58:08;;;;;;;15.17;13.87;;;;;;;11.43;67.85;101903.81;5027840;27;102148;-49
2021/12/16 06:00:38;;;;;;;16.35;15.05;;;;;;;11.42;67.92;101913.88;5037791;27;102687;-48
2021/12/16 06:03:08;;;;;;;13.85;12.75;;;;;;;11.43;67.77;101911.97;5035042;27;104487;-50
2021/12/16 06:05:36;;;;;;;15.33;14.07;;;;;;;11.42;67.95;101905.72;5023347;27;102697;-49
2021/12/16 06:08:04;;;;;;;14.27;13.18;;;;;;;11.42;67.89;101908.44;5037174;27;102202;-49
2021/12/16 06:13:03;;;;;;;15.15;13.95;;;;;;;11.43;67.96;101914.72;5030948;27;104166;-50
2021/12/16 06:15:58;;;;;;;15.00;13.70;;;;;;;11.43;68.13;101914.72;5026978;27;102866;-49
2021/12/16 06:27:01;;;;;;;14.30;13.23;;;;;;;11.42;67.58;101905.72;5028543;27;102150;-48
2021/12/16 06:29:30;;;;;;;15.13;13.93;;;;;;;11.43;67.83;101909.25;5033778;27;102236;-49
2021/12/16 06:32:00;;;;;;;14.63;13.45;;;;;;;11.43;67.90;101904.66;5035592;27;102496;-49
2021/12/16 06:34:27;;;;;;;15.20;14.00;;;;;;;11.43;67.64;101907.38;5033757;27;104043;-49
2021/12/16 06:36:54;;;;;;;14.85;13.65;;;;;;;11.44;68.20;101902.75;5034879;27;103191;-49
2021/12/16 06:39:20;;;;;;;14.18;13.07;;;;;;;11.43;67.77;101906.53;5030000;27;102433;-49
2021/12/16 06:41:47;;;;;;;14.18;13.10;;;;;;;11.42;67.97;101904.88;5026825;27;102523;-49
2021/12/16 06:44:42;;;;;;;13.90;12.82;;;;;;;11.42;67.79;101907.63;5024903;27;102960;-49
2021/12/16 06:47:15;;;;;;;15.00;13.80;;;;;;;11.42;68.06;101913.06;5028683;27;104046;-49
2021/12/16 06:49:45;;;;;;;14.57;13.48;;;;;;;11.42;67.88;101923.97;5032784;27;102183;-49
2021/12/16 06:52:15;;;;;;;14.52;13.52;;;;;;;11.42;67.64;101924.78;5025365;27;102193;-49
2021/12/16 06:55:10;;;;;;;14.95;13.65;;;;;;;11.43;67.87;101917.44;5029627;27;104091;-49
2021/12/16 07:00:09;;;;;;;13.77;12.70;;;;;;;11.41;67.85;101920.41;5024334;27;102849;-49
2021/12/16 07:02:54;;;;;;;14.73;13.57;;;;;;;11.42;67.91;101922.06;5023845;27;102438;-48
2021/12/16 07:05:23;;;;;;;13.52;12.43;;;;;;;11.42;67.57;101918.50;5022405;27;103948;-49
2021/12/16 07:07:51;;;;;;;14.48;13.18;;;;;;;11.43;67.92;101914.72;5025051;27;102677;-49
2021/12/16 07:10:21;;;;;;;15.57;14.27;;;;;;;11.42;67.87;101915.78;5018027;27;103442;-49
2021/12/16 07:12:49;;;;;;;15.07;13.82;;;;;;;11.42;67.57;101930.25;5025049;27;102491;-49
2021/12/16 07:15:19;;;;;;;13.52;12.38;;;;;;;11.42;67.64;101919.34;5021776;27;104254;-49
2021/12/16 07:17:49;;;;;;;13.90;12.80;;;;;;;11.44;67.62;101921.84;5001392;28;102232;-49
2021/12/16 07:20:20;;;;;;;14.43;13.23;;;;;;;11.44;67.84;101916.38;5028080;27;102796;-50
2021/12/16 07:22:47;;;;;;;15.13;13.73;;;;;;;11.42;67.77;101921.25;5022124;27;102734;-49
2021/12/16 07:25:14;;;;;;;15.35;13.90;;;;;;;11.43;67.74;101931.06;5027095;27;103920;-49
2021/12/16 07:27:40;;;;;;;14.85;13.57;;;;;;;11.43;67.88;101940.09;5033635;27;102591;-49
2021/12/16 07:30:12;;;;;;;13.60;12.48;;;;;;;11.43;68.05;101939.25;5028967;27;102442;-49
2021/12/16 07:32:39;;;;;;;13.63;12.45;;;;;;;11.44;67.84;101947.19;5032426;27;102399;-50
2021/12/16 07:35:11;;;;;;;15.52;14.05;;;;;;;11.45;67.89;101961.63;5029654;27;104056;-48
2021/12/16 07:37:38;;;;;;;15.35;14.02;;;;;;;11.43;67.81;101958.31;5034610;27;102632;-49
2021/12/16 07:40:08;;;;;;;14.57;13.27;;;;;;;11.45;67.75;101964.38;5034035;27;102452;-49
2021/12/16 07:42:48;;;;;;;15.55;14.02;;;;;;;11.43;67.79;101952.88;5031533;27;102060;-49
2021/12/16 07:45:18;;;;;;;13.88;12.68;;;;;;;11.43;67.54;101947.41;5033710;27;104095;-49
2021/12/16 07:47:47;;;;;;;15.45;13.98;;;;;;;11.43;67.86;101951.00;5029448;27;102558;-49
2021/12/16 07:50:15;;;;;;;16.02;14.52;;;;;;;11.44;67.79;101949.09;5029530;27;102325;-49
2021/12/16 07:52:42;;;;;;;15.98;14.57;;;;;;;11.43;67.82;101939.25;5029172;27;102240;-49
2021/12/16 07:55:12;;;;;;;15.70;14.23;;;;;;;11.43;67.69;101939.25;5026432;27;103912;-49
2021/12/16 07:57:39;;;;;;;15.68;14.27;;;;;;;11.43;68.00;101941.97;5033403;27;102537;-49
2021/12/16 08:00:15;;;;;;;16.33;14.85;;;;;;;11.43;67.81;101937.38;5024409;27;102554;-49
2021/12/16 08:02:41;;;;;;;15.93;14.48;;;;;;;11.44;67.95;101939.00;5011248;27;102321;-48
2021/12/16 08:05:10;;;;;;;16.13;14.73;;;;;;;11.44;67.71;101954.53;5023917;27;103970;-50
2021/12/16 08:07:38;;;;;;;16.52;14.93;;;;;;;11.43;68.11;101952.88;5023280;27;102386;-49
2021/12/16 08:10:08;;;;;;;15.88;14.50;;;;;;;11.43;67.78;101941.97;5027513;27;102202;-49
2021/12/16 08:12:38;;;;;;;16.38;14.80;;;;;;;11.42;67.74;101946.59;5026088;27;102184;-49
2021/12/16 08:15:06;;;;;;;16.77;15.27;;;;;;;11.42;67.56;101948.50;5028764;27;103867;-50
2021/12/16 08:17:33;;;;;;;19.75;17.98;;;;;;;11.43;67.55;101947.41;5031421;27;102783;-49
2021/12/16 08:19:59;;;;;;;17.35;15.60;;;;;;;11.43;67.81;101947.41;5032052;27;102397;-49
2021/12/16 08:22:26;;;;;;;17.33;15.70;;;;;;;11.42;67.98;101956.69;5033476;27;102771;-50
2021/12/16 08:24:54;;;;;;;13.25;12.13;;;;;;;11.41;67.71;101953.13;5032627;27;104044;-49
2021/12/16 08:27:20;;;;;;;14.70;13.57;;;;;;;11.42;67.77;101945.78;5029069;27;102163;-49
2021/12/16 08:29:47;;;;;;;18.88;17.52;;;;;;;11.41;67.81;101942.22;5029028;27;102083;-49
2021/12/16 08:32:13;;;;;;;16.30;15.10;;;;;;;11.42;67.64;101948.50;5026768;27;102268;-50
2021/12/16 08:34:42;;;;;;;14.65;13.55;;;;;;;11.42;67.85;101956.69;5032741;27;103923;-48
2021/12/16 08:37:09;;;;;;;;;;;;;;;11.42;67.94;101945.78;5026429;27;102123;-49
2021/12/16 08:39:36;;;;;;;16.38;15.07;;;;;;;11.42;67.66;101951.22;5031040;27;102151;-49
2021/12/16 08:42:06;;;;;;;15.10;13.80;;;;;;;11.41;67.51;101960.47;5032129;27;104309;-49
2021/12/16 08:44:33;;;;;;;18.67;16.98;;;;;;;11.41;67.52;101955.03;5024618;27;103999;-49
2021/12/16 08:47:05;;;;;;;16.85;15.55;;;;;;;11.41;67.68;101947.69;5033183;27;102453;-49
2021/12/16 08:49:31;;;;;;;11.63;10.93;;;;;;;11.40;67.53;101945.22;5025425;27;102030;-48
2021/12/16 08:52:04;;;;;;;12.60;11.80;;;;;;;11.40;67.65;101948.75;5032318;27;102224;-49
2021/12/16 08:54:32;;;;;;;12.15;11.45;;;;;;;11.40;67.64;101942.50;5028334;27;103891;-50
2021/12/16 08:56:59;;;;;;;10.10;9.43;;;;;;;11.40;67.80;101947.94;5032378;27;101980;-49
2021/12/16 08:59:28;;;;;;;8.85;8.15;;;;;;;11.41;67.72;101944.13;5026097;27;103557;-49
2021/12/16 09:01:58;;;;;;;9.40;8.70;;;;;;;11.40;67.93;101943.31;5034384;27;102841;-49
2021/12/16 09:04:26;;;;;;;7.72;7.22;;;;;;;11.41;67.70;101935.94;5017210;27;103917;-49
2021/12/16 09:06:57;;;;;;;8.52;7.93;;;;;;;11.40;67.58;101931.59;5017664;27;104025;-49
2021/12/16 09:09:23;;;;;;;8.20;7.65;;;;;;;11.40;67.89;101928.84;5031451;27;102045;-48
2021/12/16 09:12:05;;;;;;;8.30;7.70;;;;;;;11.39;67.37;101930.72;5012242;28;103237;-49
2021/12/16 09:14:35;;;;;;;7.97;7.47;;;;;;;11.40;67.68;101926.13;5018944;27;103965;-49
2021/12/16 09:17:03;;;;;;;8.00;7.50;;;;;;;11.40;67.63;101920.69;5017155;27;102213;-48
2021/12/16 09:19:30;;;;;;;8.25;7.65;;;;;;;11.40;67.93;101924.22;5022759;27;102349;-49
2021/12/16 09:21:57;;;;;;;8.20;7.60;;;;;;;11.40;67.60;101920.69;5034033;27;102287;-49
2021/12/16 09:24:23;;;;;;;8.95;8.25;;;;;;;11.40;67.59;101926.13;5027971;27;103704;-49
2021/12/16 09:26:50;;;;;;;8.07;7.57;;;;;;;11.40;67.42;101928.84;5026821;27;102201;-49
2021/12/16 09:29:16;;;;;;;7.55;7.05;;;;;;;11.40;67.78;101931.59;5027270;27;103829;-49
2021/12/16 09:31:44;;;;;;;7.97;7.38;;;;;;;11.40;67.44;101926.94;5031043;27;102213;-49
2021/12/16 09:34:11;;;;;;;7.55;7.05;;;;;;;11.40;67.42;101943.31;5029734;27;103942;-49
2021/12/16 09:36:40;;;;;;;7.22;6.72;;;;;;;11.41;67.70;101939.50;5033967;27;103538;-50
2021/12/16 09:39:11;;;;;;;7.85;7.25;;;;;;;11.41;67.63;101941.41;5031974;27;102226;-49
2021/12/16 09:41:39;;;;;;;7.43;6.93;;;;;;;11.41;67.56;101941.41;5030695;27;102117;-49
2021/12/16 09:44:06;;;;;;;7.30;6.80;;;;;;;11.40;67.94;101942.50;5031872;27;103890;-49
2021/12/16 09:46:32;;;;;;;7.43;6.93;;;;;;;11.40;67.75;101924.22;5018165;27;102889;-49
2021/12/16 09:49:01;;;;;;;7.38;6.88;;;;;;;11.41;67.76;101927.78;5028630;27;102541;-49
2021/12/16 09:51:31;;;;;;;7.63;7.03;;;;;;;11.40;67.48;101921.50;5030600;27;103335;-48
2021/12/16 09:54:02;;;;;;;6.22;5.82;;;;;;;11.41;67.65;101914.16;5030229;27;103909;-49
2021/12/16 09:56:31;;;;;;;7.25;6.75;;;;;;;11.41;67.72;101917.69;5029645;27;102306;-49
2021/12/16 09:59:00;;;;;;;6.28;5.88;;;;;;;11.41;67.67;101903.25;5027023;27;102258;-49
2021/12/16 10:01:28;;;;;;;6.70;6.20;;;;;;;11.40;67.82;101893.44;5031846;27;102239;-49
2021/12/16 10:04:00;;;;;;;6.68;6.18;;;;;;;11.41;67.51;101885.00;5024218;27;107941;-48
2021/12/16 10:06:29;;;;;;;6.43;6.00;;;;;;;11.41;67.63;101882.25;5026503;27;102112;-50
2021/12/16 10:08:59;;;;;;;7.10;6.60;;;;;;;11.41;67.68;101884.16;5024880;27;102547;-49
2021/12/16 10:11:25;;;;;;;7.05;6.55;;;;;;;11.41;67.64;101889.63;5029713;27;102644;-49
2021/12/16 10:19:26;;;;;;;6.68;6.07;;;;;;;11.41;67.75;101884.16;5019960;27;102112;-49
2021/12/16 10:22:13;;;;;;;7.30;6.82;;;;;;;11.41;67.87;101874.09;5021062;27;102173;-49
2021/12/16 10:24:40;;;;;;;7.55;6.95;;;;;;;11.40;67.70;101867.00;5020233;27;103910;-49
2021/12/16 10:27:09;;;;;;;6.63;6.15;;;;;;;11.40;67.85;101858.81;5035172;27;102259;-49
2021/12/16 10:29:37;;;;;;;7.28;6.78;;;;;;;11.40;67.87;101866.16;5026786;27;102238;-49
2021/12/16 10:32:04;;;;;;;7.20;6.70;;;;;;;11.40;67.61;101858.00;5026143;27;102809;-49
2021/12/16 10:34:31;;;;;;;7.00;6.47;;;;;;;11.41;67.67;101851.47;5033073;27;103952;-49
2021/12/16 10:37:01;;;;;;;7.38;6.88;;;;;;;11.40;67.66;101855.25;5023094;27;102502;-49
2021/12/16 10:39:28;;;;;;;6.75;6.25;;;;;;;11.41;67.70;101859.63;5034143;27;101997;-49
2021/12/16 10:41:56;;;;;;;7.30;6.80;;;;;;;11.41;67.88;101862.34;5035202;27;102487;-49
2021/12/16 10:44:24;;;;;;;7.20;6.70;;;;;;;11.40;67.33;101858.81;5034342;27;103793;-49
2021/12/16 10:46:59;;;;;;;7.45;6.95;;;;;;;11.40;67.64;101855.25;5036331;27;102237;-49
2021/12/16 10:49:29;;;;;;;7.88;7.28;;;;;;;11.40;67.78;101847.09;5033923;27;102676;-49
2021/12/16 10:51:59;;;;;;;6.95;6.45;;;;;;;11.40;67.60;101838.91;5035965;27;103353;-49
2021/12/16 10:54:27;;;;;;;;;;;;;;;11.40;67.75;101847.09;5032892;27;103919;-49
2021/12/16 10:56:57;;;;;;;7.15;6.70;;;;;;;11.40;67.78;101849.81;5034533;27;102639;-49
2021/12/16 10:59:28;;;;;;;6.85;6.45;;;;;;;11.40;67.44;101847.91;5032298;27;102679;-49
2021/12/16 11:02:01;;;;;;;7.03;6.53;;;;;;;11.39;67.27;101842.69;5029434;27;102360;-49
2021/12/16 11:04:33;;;;;;;6.68;6.28;;;;;;;11.40;67.88;101844.34;5032963;27;103957;-48
2021/12/16 11:07:03;;;;;;;6.95;6.45;;;;;;;11.39;67.33;101846.22;5030642;27;103732;-49
2021/12/16 11:09:54;;;;;;;14.10;13.20;;;;;;;11.40;67.54;101844.34;5028005;27;102204;-49
2021/12/16 11:12:26;;;;;;;13.93;13.02;;;;;;;11.40;67.38;101838.91;5029457;27;102792;-49
2021/12/16 11:14:55;;;;;;;13.70;12.80;;;;;;;11.39;67.48;101845.41;5029056;27;102959;-50
2021/12/16 11:17:22;;;;;;;;;;;;;;;11.40;67.71;101838.91;5034048;27;102022;-49
2021/12/16 11:19:54;;;;;;;15.40;14.48;;;;;;;11.40;67.71;101825.28;5031900;27;102692;-50
2021/12/16 11:22:24;;;;;;;14.07;13.18;;;;;;;11.39;67.48;101837.25;5028353;27;102011;-49
2021/12/16 11:24:53;;;;;;;13.65;12.75;;;;;;;11.39;67.52;101845.41;5035776;27;103885;-49
2021/12/16 11:27:38;;;;;;;12.85;12.02;;;;;;;11.40;67.46;101849.81;5030818;27;102228;-49
2021/12/16 11:30:27;;;;;;;13.52;12.63;;;;;;;11.39;67.44;101845.41;5036225;27;102365;-49
2021/12/16 11:33:13;;;;;;;15.13;14.10;;;;;;;11.39;67.39;101848.13;5034714;27;102901;-49
2021/12/16 11:35:51;;;;;;;13.65;12.70;;;;;;;11.39;67.29;101839.97;5015577;28;103968;-49
2021/12/16 11:38:23;;;;;;;13.40;12.50;;;;;;;11.39;67.68;101845.41;5031957;27;102560;-49
2021/12/16 11:41:03;;;;;;;13.70;12.80;;;;;;;11.40;67.59;101838.91;5028983;27;102541;-49
2021/12/16 11:43:38;;;;;;;13.77;12.88;;;;;;;11.39;67.72;101840.78;5028413;27;102848;-49
2021/12/16 11:46:11;;;;;;;13.13;12.32;;;;;;;11.39;67.74;101843.50;5028697;27;103948;-49
2021/12/16 11:48:40;;;;;;;13.52;12.63;;;;;;;11.38;67.19;101839.16;5022930;27;102338;-49
2021/12/16 11:51:13;;;;;;;12.93;12.02;;;;;;;11.39;67.63;101839.97;5025717;27;104054;-49
2021/12/16 11:53:44;;;;;;;12.77;11.98;;;;;;;11.39;67.38;101837.25;5026899;27;102176;-49
2021/12/16 11:56:12;;;;;;;12.95;12.13;;;;;;;11.40;67.53;101833.47;5021158;27;104018;-49
2021/12/16 11:58:41;;;;;;;13.10;12.27;;;;;;;11.38;67.48;101838.31;5025860;27;102555;-49
2021/12/16 12:01:15;;;;;;;12.95;12.15;;;;;;;11.40;67.30;101833.47;5030732;27;102458;-49
2021/12/16 12:03:41;;;;;;;12.65;11.85;;;;;;;11.39;67.43;101840.78;5023288;27;102405;-49
2021/12/16 12:06:19;;;;;;;13.05;12.25;;;;;;;11.39;67.51;101846.22;5028858;27;103953;-49
2021/12/16 12:08:47;;;;;;;11.45;10.75;;;;;;;11.39;67.47;101839.97;5019133;27;102387;-49
2021/12/16 12:11:17;;;;;;;;;;;;;;;11.39;67.64;101843.50;5022281;27;103617;-49
2021/12/16 12:13:46;;;;;;;14.68;13.77;;;;;;;11.40;67.43;101838.91;5027420;27;102616;-49
2021/12/16 12:16:13;;;;;;;;;;;;;;;11.39;67.58;101832.59;5021486;27;103894;-49
2021/12/16 12:18:44;;;;;;;15.15;14.25;;;;;;;11.39;67.49;101838.06;5026285;27;102507;-49
2021/12/16 12:21:28;;;;;;;12.75;11.80;;;;;;;11.40;67.66;101838.91;5031184;28;102184;-50
2021/12/16 12:23:58;;;;;;;23.55;21.45;;;;;;;11.40;67.26;101833.47;5026871;27;102187;-49
2021/12/16 12:26:29;;;;;;;22.95;20.77;;;;;;;11.40;67.56;101838.91;5023781;27;103871;-51
2021/12/16 12:28:58;;;;;;;21.70;19.70;;;;;;;11.40;67.43;101838.91;5032739;27;102179;-50
2021/12/16 12:31:27;;;;;;;22.25;20.23;;;;;;;11.41;67.67;101840.56;5024136;27;102294;-49
2021/12/16 12:33:54;;;;;;;;;;;;;;;11.40;67.68;101828.00;5013054;27;102411;-49
2021/12/16 12:36:23;;;;;;;22.48;20.48;;;;;;;11.41;67.59;101832.38;5017127;27;104079;-49
2021/12/16 12:38:51;;;;;;;21.33;19.23;;;;;;;11.40;67.49;101833.47;5015193;27;102504;-49
2021/12/16 12:41:19;;;;;;;21.33;19.40;;;;;;;11.40;67.65;101850.63;5029484;27;102443;-49
2021/12/16 12:43:46;;;;;;;21.80;19.80;;;;;;;11.40;67.61;101847.09;5033708;27;102630;-49
2021/12/16 12:46:15;;;;;;;22.33;20.33;;;;;;;11.40;67.34;101849.81;5028905;28;103986;-49
2021/12/16 12:48:42;;;;;;;21.25;19.25;;;;;;;11.40;67.63;101849.81;5028983;27;102148;-49
2021/12/16 12:51:09;;;;;;;20.88;19.08;;;;;;;11.40;67.68;101855.25;5031979;27;102203;-50
2021/12/16 12:53:46;;;;;;;20.85;18.98;;;;;;;11.40;67.78;101858.00;5033397;27;102268;-49
2021/12/16 12:56:16;;;;;;;21.35;19.42;;;;;;;11.41;67.71;101854.19;5031022;27;104045;-50
2021/12/16 12:58:54;;;;;;;20.42;18.63;;;;;;;11.40;67.49;101847.09;5029815;27;104307;-48
2021/12/16 13:01:37;;;;;;;21.00;19.10;;;;;;;11.40;67.55;101841.63;5018796;27;104153;-49
2021/12/16 13:04:10;;;;;;;21.30;19.48;;;;;;;11.40;67.48;101844.34;5018959;27;103882;-48
2021/12/16 13:06:55;;;;;;;20.77;18.88;;;;;;;11.41;67.50;101840.56;5025758;27;103934;-50
2021/12/16 13:09:25;;;;;;;22.30;20.33;;;;;;;11.41;67.53;101843.28;5029698;27;102339;-49
2021/12/16 13:11:52;;;;;;;21.35;19.55;;;;;;;11.41;67.35;101837.81;5021965;27;102209;-49
2021/12/16 13:14:36;;;;;;;21.25;19.42;;;;;;;11.40;67.83;101847.09;5030314;27;102179;-48
2021/12/16 13:28:34;;;;;;;20.88;18.98;;;;;;;11.41;67.73;101840.56;5030677;27;103867;-49
2021/12/16 13:31:22;;;;;;;20.73;19.02;;;;;;;11.41;67.58;101846.00;5025967;27;102197;-49
2021/12/16 13:33:55;;;;;;;21.77;19.83;;;;;;;11.40;67.50;101845.19;5022948;27;102026;-49
2021/12/16 13:36:39;;;;;;;21.15;19.55;;;;;;;11.41;67.73;101844.09;5031210;27;102957;-49
2021/12/16 13:39:10;;;;;;;21.83;19.95;;;;;;;11.41;67.59;101849.56;5030679;27;108073;-49
2021/12/16 13:41:54;;;;;;;20.05;18.25;;;;;;;11.42;67.28;101850.38;5030372;27;102466;-49
2021/12/16 13:44:37;;;;;;;19.48;17.95;;;;;;;11.41;67.50;101851.47;5029010;27;102074;-49
2021/12/16 13:47:27;;;;;;;20.42;18.83;;;;;;;11.42;67.42;101858.53;5032453;27;102383;-49
2021/12/16 14:05:03;;;;;;;19.58;18.02;;;;;;;11.41;67.71;101848.72;5033839;27;102001;-49
2021/12/16 14:08:06;;;;;;;19.55;17.95;;;;;;;11.41;67.68;101852.28;5036461;27;102756;-49
2021/12/16 14:10:50;;;;;;;19.70;18.02;;;;;;;11.42;67.53;101847.66;5026286;27;105790;-49
2021/12/16 14:16:40;;;;;;;20.00;18.42;;;;;;;11.42;67.76;101842.19;5028726;27;104041;-49
2021/12/16 14:31:09;;;;;;;18.52;17.13;;;;;;;11.42;67.69;101840.28;5025342;27;105728;-49
2021/12/16 14:38:38;;;;;;;18.40;17.00;;;;;;;11.44;67.52;101851.78;5030182;27;102219;-49
2021/12/16 14:41:09;;;;;;;20.10;18.55;;;;;;;11.45;67.52;101852.59;5027735;27;103110;-49
2021/12/16 14:43:41;;;;;;;19.58;18.08;;;;;;;11.44;67.78;101846.34;5025395;27;102142;-48
2021/12/16 14:46:10;;;;;;;19.60;18.10;;;;;;;11.44;67.55;101835.44;5024972;27;103889;-48
2021/12/16 14:48:36;;;;;;;17.27;15.98;;;;;;;11.43;67.74;101833.78;5026679;27;102542;-49